Time;durP1;ratioP1;P1;durP2;ratioP2;P2;SDS_P1;SDS_P2;PMS_P1;PMS_P2;Temp;Humidity;BMP_temperature;BMP_pressure;BME280_temperature;BME280_humidity;BME280_pressure;Samples;Min_cycle;Max_cycle;Signal;HPM_P1;HPM_P2
2023/02/21 02:15:05;;;;;;;51.38;22.60;;;9.00;99.90;;;;;;5042570;28;19932;-73
2023/02/21 02:17:36;;;;;;;59.28;23.92;;;9.00;99.90;;;;;;5040785;28;20025;-73
2023/02/21 02:20:31;;;;;;;51.42;21.42;;;9.00;99.90;;;;;;5043096;28;20033;-77
2023/02/21 02:23:21;;;;;;;57.33;22.35;;;9.00;99.90;;;;;;5042862;28;20067;-73
2023/02/21 02:26:05;;;;;;;62.70;23.63;;;9.00;99.90;;;;;;5038540;28;20053;-73
2023/02/21 02:28:46;;;;;;;41.88;19.63;;;9.00;99.90;;;;;;5042386;28;20080;-74
2023/02/21 02:31:14;;;;;;;52.47;21.27;;;9.00;99.90;;;;;;5041183;28;20049;-72
2023/02/21 02:34:13;;;;;;;60.03;22.38;;;9.00;99.90;;;;;;5040386;28;20037;-76
2023/02/21 02:36:48;;;;;;;52.90;23.08;;;9.00;99.90;;;;;;5040714;28;20025;-74
2023/02/21 02:39:23;;;;;;;51.15;20.77;;;9.00;99.90;;;;;;5042233;28;20037;-74
2023/02/21 02:41:52;;;;;;;50.55;21.85;;;9.00;99.90;;;;;;5041225;28;20028;-76
2023/02/21 02:44:25;;;;;;;54.13;21.33;;;9.00;99.90;;;;;;5041322;28;20026;-74
2023/02/21 02:46:53;;;;;;;46.03;20.20;;;9.00;99.90;;;;;;5040488;28;20872;-76
2023/02/21 02:49:26;;;;;;;47.20;21.08;;;9.00;99.90;;;;;;5040303;28;20080;-75
2023/02/21 02:51:52;;;;;;;51.47;20.65;;;9.00;99.90;;;;;;5042149;28;20030;-74
2023/02/21 02:54:18;;;;;;;48.10;19.90;;;9.00;99.90;;;;;;5041769;28;20029;-73
2023/02/21 02:56:45;;;;;;;48.75;20.48;;;9.00;99.90;;;;;;5041745;28;20021;-77
2023/02/21 02:59:16;;;;;;;47.22;19.85;;;9.00;99.90;;;;;;5039483;28;20039;-77
2023/02/21 03:01:48;;;;;;;48.10;20.80;;;9.00;99.90;;;;;;5041781;28;20029;-75
2023/02/21 03:04:14;;;;;;;48.30;21.27;;;9.00;99.90;;;;;;5040598;28;20091;-78
2023/02/21 03:06:50;;;;;;;46.25;19.63;;;9.00;99.90;;;;;;5041249;28;20044;-74
2023/02/21 03:09:36;;;;;;;47.53;19.42;;;9.00;99.90;;;;;;5039910;28;20040;-77
2023/02/21 03:12:10;;;;;;;47.95;19.55;;;9.00;99.90;;;;;;5041914;28;20030;-76
2023/02/21 03:14:38;;;;;;;;;;;9.00;99.90;;;;;;5042469;28;20040;-79
2023/02/21 03:17:10;;;;;;;46.90;17.52;;;9.00;99.90;;;;;;5041799;28;19905;-74
2023/02/21 03:19:38;;;;;;;40.75;17.92;;;9.00;99.90;;;;;;5040265;28;20502;-75
2023/02/21 03:22:10;;;;;;;44.70;19.17;;;9.10;99.90;;;;;;5041275;28;20097;-76
2023/02/21 03:24:39;;;;;;;49.50;18.90;;;9.00;99.90;;;;;;5041439;28;20061;-75
2023/02/21 03:27:07;;;;;;;43.83;17.77;;;9.00;99.90;;;;;;5041603;28;20030;-73
2023/02/21 03:29:34;;;;;;;43.72;17.60;;;9.00;99.90;;;;;;5054823;28;20077;-74
2023/02/21 03:34:43;;;;;;;42.35;17.38;;;9.00;99.90;;;;;;5041048;28;20057;-77
2023/02/21 03:37:28;;;;;;;47.75;17.15;;;9.00;99.90;;;;;;5040899;28;20025;-75
2023/02/21 03:39:54;;;;;;;43.47;17.05;;;9.00;99.90;;;;;;5040460;28;20029;-76
2023/02/21 03:42:20;;;;;;;42.70;17.50;;;9.00;99.90;;;;;;5040967;28;20489;-77
2023/02/21 03:44:45;;;;;;;43.92;16.77;;;9.00;99.90;;;;;;5041303;28;20157;-76
2023/02/21 03:47:11;;;;;;;41.85;16.88;;;9.00;99.90;;;;;;5041309;28;20025;-81
2023/02/21 03:49:36;;;;;;;42.92;17.52;;;9.00;99.90;;;;;;5041452;28;20041;-78
2023/02/21 03:52:02;;;;;;;41.10;16.25;;;9.00;99.90;;;;;;5040841;28;20026;-75
2023/02/21 03:54:28;;;;;;;46.10;18.85;;;9.00;99.90;;;;;;5040853;28;20017;-74
2023/02/21 03:56:53;;;;;;;47.58;17.88;;;9.00;99.90;;;;;;5040668;28;20464;-73
2023/02/21 03:59:19;;;;;;;52.28;19.15;;;9.00;99.90;;;;;;5039677;28;20021;-74
2023/02/21 04:01:44;;;;;;;44.25;19.55;;;9.00;99.90;;;;;;5039892;28;20030;-74
2023/02/21 04:04:10;;;;;;;51.88;19.40;;;9.00;99.90;;;;;;5041321;28;20029;-72
2023/02/21 04:06:35;;;;;;;51.30;19.58;;;9.00;99.90;;;;;;5055594;28;20034;-69
2023/02/21 04:09:01;;;;;;;52.25;19.88;;;9.00;99.90;;;;;;5041395;28;20033;-73
2023/02/21 04:11:27;;;;;;;48.80;20.08;;;9.00;99.90;;;;;;5044973;28;20022;-74
2023/02/21 04:13:52;;;;;;;56.85;20.45;;;9.00;99.90;;;;;;5044783;28;20033;-71
2023/02/21 04:16:18;;;;;;;50.42;20.27;;;9.00;99.90;;;;;;5044346;28;20040;-73
2023/02/21 04:18:43;;;;;;;57.45;20.02;;;9.00;99.90;;;;;;5042239;28;20030;-72
2023/02/21 04:21:09;;;;;;;43.95;18.83;;;9.00;99.90;;;;;;5045096;28;20033;-74
2023/02/21 04:23:34;;;;;;;53.10;18.70;;;9.00;99.90;;;;;;5043826;28;20026;-74
2023/02/21 04:26:00;;;;;;;45.83;18.38;;;8.90;99.90;;;;;;5043242;28;20053;-74
2023/02/21 04:28:25;;;;;;;49.95;19.58;;;8.90;99.90;;;;;;5044727;28;20022;-72
2023/02/21 04:30:51;;;;;;;49.60;17.42;;;8.90;99.90;;;;;;5044518;28;20863;-74
2023/02/21 04:33:16;;;;;;;52.30;17.48;;;8.90;99.90;;;;;;5043270;28;20033;-73
2023/02/21 04:35:42;;;;;;;49.75;16.90;;;9.00;99.90;;;;;;5044719;28;20611;-72
2023/02/21 04:38:08;;;;;;;42.15;15.95;;;8.90;99.90;;;;;;5043464;28;20053;-76
2023/02/21 04:40:33;;;;;;;35.88;15.38;;;8.90;99.90;;;;;;5043265;28;20043;-73
2023/02/21 04:42:59;;;;;;;38.53;15.55;;;8.90;99.90;;;;;;5043096;28;20022;-72
2023/02/21 04:45:24;;;;;;;41.65;14.73;;;8.90;99.90;;;;;;5042778;28;20049;-75
2023/02/21 04:47:50;;;;;;;34.80;14.88;;;8.90;99.90;;;;;;5044013;28;20044;-75
2023/02/21 04:50:15;;;;;;;43.72;14.35;;;8.90;99.90;;;;;;5042958;28;20045;-74
2023/02/21 04:52:41;;;;;;;36.00;14.10;;;8.90;99.90;;;;;;5044277;28;20029;-76
2023/02/21 04:55:08;;;;;;;32.58;12.35;;;8.90;99.90;;;;;;5044110;28;20032;-77
2023/02/21 04:57:33;;;;;;;33.90;13.13;;;8.90;99.90;;;;;;5042821;28;20032;-75
2023/02/21 04:59:59;;;;;;;32.92;14.32;;;8.90;99.90;;;;;;5042319;28;20037;-70
2023/02/21 05:02:26;;;;;;;38.70;14.88;;;8.90;99.90;;;;;;5042530;28;20109;-71
2023/02/21 05:04:52;;;;;;;40.47;14.60;;;8.90;99.90;;;;;;5041135;28;20758;-71
2023/02/21 05:07:18;;;;;;;35.88;14.68;;;8.90;99.90;;;;;;5033295;28;20032;-73
2023/02/21 05:09:43;;;;;;;36.20;14.18;;;8.90;99.90;;;;;;5039347;28;20044;-73
2023/02/21 05:12:10;;;;;;;32.65;15.52;;;8.90;99.90;;;;;;5043130;28;20029;-71
2023/02/21 05:14:38;;;;;;;45.28;15.85;;;8.90;99.90;;;;;;5042175;28;20052;-70
2023/02/21 05:17:04;;;;;;;33.72;14.98;;;8.90;99.90;;;;;;5040335;28;20048;-71
2023/02/21 05:19:30;;;;;;;36.58;15.10;;;8.90;99.90;;;;;;5042748;28;20052;-69
2023/02/21 05:21:57;;;;;;;30.70;13.40;;;8.80;99.90;;;;;;5042566;28;20025;-70
2023/02/21 05:24:24;;;;;;;33.75;14.13;;;8.90;99.90;;;;;;5043035;28;20065;-71
2023/02/21 05:26:50;;;;;;;30.10;13.10;;;8.80;99.90;;;;;;5041795;28;20053;-71
2023/02/21 05:29:16;;;;;;;31.83;14.02;;;8.80;99.90;;;;;;5042228;28;20041;-70
2023/02/21 05:31:42;;;;;;;30.27;12.88;;;8.90;99.90;;;;;;5041639;28;20025;-71
2023/02/21 05:34:07;;;;;;;32.17;14.05;;;8.80;99.90;;;;;;5043307;28;20052;-72
2023/02/21 05:36:33;;;;;;;31.92;13.00;;;8.80;99.90;;;;;;5042391;28;20025;-69
2023/02/21 05:38:59;;;;;;;36.25;14.40;;;8.90;99.90;;;;;;5043412;28;20553;-70
2023/02/21 05:41:24;;;;;;;37.67;14.43;;;8.80;99.90;;;;;;5039789;28;20033;-70
2023/02/21 05:43:50;;;;;;;30.92;14.27;;;8.80;99.90;;;;;;5041604;28;20094;-71
2023/02/21 05:46:27;;;;;;;30.83;13.45;;;8.80;99.90;;;;;;5038151;28;20037;-70
2023/02/21 05:48:54;;;;;;;32.55;14.40;;;8.80;99.90;;;;;;5049993;28;20026;-70
2023/02/21 05:51:20;;;;;;;34.92;13.65;;;8.80;99.90;;;;;;5042541;28;20116;-72
2023/02/21 05:53:45;;;;;;;33.72;15.07;;;8.80;99.90;;;;;;5040845;28;20033;-71
2023/02/21 05:56:12;;;;;;;35.28;14.27;;;8.80;99.90;;;;;;5040139;28;20034;-71
2023/02/21 05:58:38;;;;;;;34.90;15.02;;;8.80;99.90;;;;;;5041341;28;20026;-70
2023/02/21 06:01:04;;;;;;;34.90;14.50;;;8.80;99.90;;;;;;5041328;28;20037;-69
2023/02/21 06:03:29;;;;;;;32.13;14.27;;;8.80;99.90;;;;;;5042259;28;20101;-70
2023/02/21 06:05:55;;;;;;;30.85;13.25;;;8.80;99.90;;;;;;5042278;28;20025;-70
2023/02/21 06:08:20;;;;;;;34.17;13.15;;;8.80;99.90;;;;;;5041919;28;20022;-68
2023/02/21 06:10:46;;;;;;;27.35;12.38;;;8.80;99.90;;;;;;5041087;28;20049;-70
2023/02/21 06:13:12;;;;;;;27.25;11.98;;;8.80;99.90;;;;;;5042613;28;20386;-71
2023/02/21 06:15:37;;;;;;;34.15;12.68;;;8.80;99.90;;;;;;5042642;28;20056;-71
2023/02/21 06:18:03;;;;;;;28.05;11.50;;;8.80;99.90;;;;;;5041520;28;20021;-71
2023/02/21 06:20:28;;;;;;;26.15;12.18;;;8.70;99.90;;;;;;5042915;28;20052;-70
2023/02/21 06:22:54;;;;;;;24.98;11.20;;;8.80;99.90;;;;;;5040484;28;20040;-70
2023/02/21 06:25:20;;;;;;;29.17;12.00;;;8.80;99.90;;;;;;5042116;28;20048;-71
2023/02/21 06:27:45;;;;;;;24.50;10.63;;;8.80;99.90;;;;;;5056937;28;20022;-70
2023/02/21 06:30:11;;;;;;;29.23;12.35;;;8.80;99.90;;;;;;5040571;28;20068;-73
2023/02/21 06:32:37;;;;;;;25.90;11.60;;;8.80;99.90;;;;;;5035879;28;20487;-71
2023/02/21 06:35:03;;;;;;;31.02;12.05;;;8.90;99.90;;;;;;5040008;28;20045;-71
2023/02/21 06:37:28;;;;;;;27.92;11.32;;;8.80;99.90;;;;;;5040254;28;20029;-72
2023/02/21 06:39:54;;;;;;;29.65;12.75;;;8.70;99.90;;;;;;5040388;28;20045;-72
2023/02/21 06:42:20;;;;;;;30.55;12.27;;;8.70;99.90;;;;;;5040810;28;20034;-69
2023/02/21 06:44:47;;;;;;;38.10;12.52;;;8.80;99.90;;;;;;5038642;28;20037;-71
2023/02/21 06:47:13;;;;;;;33.97;13.55;;;8.80;99.90;;;;;;5041106;28;20116;-71
2023/02/21 06:49:38;;;;;;;32.38;13.45;;;8.70;99.90;;;;;;5040126;28;20064;-69
2023/02/21 06:52:05;;;;;;;34.20;13.02;;;8.80;99.90;;;;;;5039825;28;20025;-73
2023/02/21 06:54:31;;;;;;;38.65;14.73;;;8.70;99.90;;;;;;5041699;28;20117;-71
2023/02/21 06:56:58;;;;;;;47.22;15.30;;;8.80;99.90;;;;;;5040543;28;20037;-73
2023/02/21 06:59:24;;;;;;;44.08;15.95;;;8.70;99.90;;;;;;5041495;28;20060;-73
2023/02/21 07:01:49;;;;;;;39.22;15.15;;;8.70;99.90;;;;;;5041543;28;20024;-71
2023/02/21 07:04:15;;;;;;;40.42;15.73;;;8.70;99.90;;;;;;5038119;28;20088;-72
2023/02/21 07:06:41;;;;;;;43.22;16.00;;;8.80;99.90;;;;;;5039056;28;20037;-74
2023/02/21 07:09:06;;;;;;;37.35;15.05;;;8.70;99.90;;;;;;5055264;28;20041;-74
2023/02/21 07:11:34;;;;;;;44.65;15.93;;;8.70;99.90;;;;;;5041391;28;20022;-72
2023/02/21 07:14:00;;;;;;;38.03;15.30;;;8.70;99.90;;;;;;5040976;28;20026;-71
2023/02/21 07:16:26;;;;;;;34.63;14.70;;;8.70;99.90;;;;;;5039842;28;20037;-73
2023/02/21 07:18:52;;;;;;;36.55;14.07;;;8.80;99.90;;;;;;5039921;28;20060;-71
2023/02/21 07:21:19;;;;;;;33.40;14.40;;;8.70;99.90;;;;;;5041052;28;20033;-74
2023/02/21 07:23:46;;;;;;;35.10;13.93;;;8.70;99.90;;;;;;5038340;28;20033;-72
2023/02/21 07:26:12;;;;;;;35.95;13.85;;;8.70;99.90;;;;;;5041636;28;20109;-74
2023/02/21 07:28:37;;;;;;;29.30;14.63;;;8.80;99.90;;;;;;5041841;28;20089;-71
2023/02/21 07:31:03;;;;;;;33.17;14.48;;;8.80;99.90;;;;;;5041304;28;20041;-71
2023/02/21 07:33:29;;;;;;;35.17;14.23;;;8.80;99.90;;;;;;5038011;28;20040;-72
2023/02/21 07:35:55;;;;;;;37.90;14.57;;;8.80;99.90;;;;;;5038874;28;20036;-74
2023/02/21 07:38:28;;;;;;;34.80;14.10;;;8.80;99.90;;;;;;5039887;28;20025;-72
2023/02/21 07:40:55;;;;;;;33.10;14.02;;;8.80;99.90;;;;;;5038349;28;20713;-72
2023/02/21 07:43:21;;;;;;;38.83;14.63;;;8.80;99.90;;;;;;5039018;28;20033;-74
2023/02/21 07:45:46;;;;;;;33.80;15.13;;;8.80;99.90;;;;;;5041265;28;20025;-73
2023/02/21 07:48:13;;;;;;;37.50;15.35;;;8.80;99.90;;;;;;5040302;28;20025;-72
2023/02/21 07:50:40;;;;;;;41.47;15.15;;;8.80;99.90;;;;;;5039669;28;20052;-72
2023/02/21 07:53:05;;;;;;;34.13;15.73;;;8.90;99.90;;;;;;5037868;28;20014;-72
2023/02/21 07:55:32;;;;;;;36.13;15.30;;;8.90;99.90;;;;;;5035021;28;20033;-71
2023/02/21 07:57:57;;;;;;;36.47;15.85;;;8.90;99.90;;;;;;5040200;28;20030;-70
2023/02/21 08:00:24;;;;;;;40.58;16.85;;;8.90;99.90;;;;;;5040971;28;20487;-70
2023/02/21 08:02:50;;;;;;;42.05;17.17;;;8.90;99.90;;;;;;5039080;28;20026;-70
2023/02/21 08:05:17;;;;;;;41.03;17.15;;;8.90;99.90;;;;;;5039925;28;20037;-70
2023/02/21 08:07:43;;;;;;;43.00;17.58;;;8.90;99.90;;;;;;5038037;28;20084;-69
2023/02/21 08:10:10;;;;;;;41.58;17.00;;;8.90;99.90;;;;;;5037519;28;20075;-69
2023/02/21 08:12:35;;;;;;;37.67;16.48;;;8.90;99.90;;;;;;5040727;28;20060;-71
2023/02/21 08:15:01;;;;;;;37.83;15.60;;;8.90;99.90;;;;;;5039369;28;20029;-71
2023/02/21 08:17:26;;;;;;;43.03;16.67;;;8.90;99.90;;;;;;5040164;28;20033;-71
2023/02/21 08:19:52;;;;;;;38.15;16.15;;;9.00;99.90;;;;;;5038810;28;20041;-71
2023/02/21 08:22:18;;;;;;;41.08;17.27;;;8.90;99.90;;;;;;5038387;28;20029;-71
2023/02/21 08:24:45;;;;;;;41.55;16.70;;;8.90;99.90;;;;;;5055127;28;20049;-70
2023/02/21 08:27:10;;;;;;;35.20;16.65;;;8.90;99.90;;;;;;5040960;28;20018;-73
2023/02/21 08:29:36;;;;;;;39.65;16.02;;;8.90;99.90;;;;;;5040757;28;20056;-72
2023/02/21 08:32:02;;;;;;;44.13;16.40;;;8.90;99.90;;;;;;5040111;28;20030;-70
2023/02/21 08:34:28;;;;;;;40.05;16.63;;;8.90;99.90;;;;;;5040249;28;20026;-72
2023/02/21 08:36:54;;;;;;;38.13;16.40;;;8.90;99.90;;;;;;5039277;28;20032;-72
2023/02/21 08:39:20;;;;;;;39.22;16.73;;;8.90;99.90;;;;;;5039419;28;20025;-70
2023/02/21 08:41:47;;;;;;;34.20;16.30;;;9.00;99.90;;;;;;5040348;28;20522;-69
2023/02/21 08:44:17;;;;;;;32.38;14.80;;;9.00;99.90;;;;;;5040673;28;20033;-72
2023/02/21 08:46:43;;;;;;;43.30;16.38;;;9.00;99.90;;;;;;5040427;28;20056;-72
2023/02/21 08:49:09;;;;;;;43.67;16.85;;;9.00;99.90;;;;;;5039437;28;20033;-71
2023/02/21 08:51:36;;;;;;;41.63;17.05;;;9.00;99.90;;;;;;5040751;28;20017;-72
2023/02/21 08:54:02;;;;;;;43.45;17.83;;;9.00;99.90;;;;;;5040079;28;20280;-70
2023/02/21 08:56:29;;;;;;;47.63;17.77;;;9.00;99.90;;;;;;5041920;28;20029;-70
2023/02/21 08:58:55;;;;;;;45.95;19.27;;;9.00;99.90;;;;;;5042098;28;20017;-72
2023/02/21 09:01:21;;;;;;;42.97;17.38;;;9.00;99.90;;;;;;5041739;28;20418;-71
2023/02/21 09:03:47;;;;;;;49.42;18.67;;;9.10;99.90;;;;;;5039022;28;20045;-72
2023/02/21 09:06:13;;;;;;;44.70;18.50;;;9.10;99.90;;;;;;5040822;28;20022;-72
2023/02/21 09:08:39;;;;;;;53.13;19.48;;;9.10;99.90;;;;;;5041090;28;20033;-72
2023/02/21 09:11:05;;;;;;;47.90;18.35;;;9.10;99.90;;;;;;5043479;28;20076;-68
2023/02/21 09:13:31;;;;;;;55.08;19.30;;;9.10;99.90;;;;;;5040615;28;20474;-73
2023/02/21 09:15:58;;;;;;;50.67;19.23;;;9.10;99.90;;;;;;5043775;28;20037;-70
2023/02/21 09:18:23;;;;;;;58.45;19.45;;;9.00;99.90;;;;;;5040697;28;20028;-74
2023/02/21 09:20:51;;;;;;;55.08;20.58;;;9.10;99.90;;;;;;5041557;28;20056;-73
2023/02/21 09:23:18;;;;;;;55.75;19.15;;;9.10;99.90;;;;;;5041372;28;20029;-71
2023/02/21 09:25:44;;;;;;;46.63;18.25;;;9.10;99.90;;;;;;5042080;28;20042;-70
2023/02/21 09:28:10;;;;;;;57.42;20.60;;;9.10;99.90;;;;;;5041177;28;20052;-71
2023/02/21 09:30:36;;;;;;;51.70;19.70;;;9.10;99.90;;;;;;5043288;28;20050;-73
2023/02/21 09:33:01;;;;;;;51.97;20.70;;;9.10;99.90;;;;;;5042322;28;20049;-73
2023/02/21 09:35:29;;;;;;;54.42;19.55;;;9.10;99.90;;;;;;5043198;28;20501;-73
2023/02/21 09:37:57;;;;;;;58.55;19.10;;;9.10;99.90;;;;;;5043345;28;20024;-72
2023/02/21 09:40:22;;;;;;;53.53;19.38;;;9.10;99.90;;;;;;5042607;28;20391;-71
2023/02/21 09:42:51;;;;;;;45.85;17.98;;;9.10;99.90;;;;;;5040051;28;20093;-74
2023/02/21 09:45:18;;;;;;;50.22;19.23;;;9.20;99.90;;;;;;5048179;28;20026;-74
2023/02/21 09:47:52;;;;;;;55.15;20.23;;;9.20;99.90;;;;;;5035053;28;20064;-71
2023/02/21 09:50:22;;;;;;;56.03;18.87;;;9.30;99.90;;;;;;5038076;28;20076;-71
2023/02/21 09:52:48;;;;;;;60.67;17.95;;;9.30;99.90;;;;;;5037810;28;20028;-73
2023/02/21 09:55:27;;;;;;;47.85;18.75;;;9.30;99.90;;;;;;5036825;28;20030;-72
2023/02/21 09:57:53;;;;;;;51.63;19.27;;;9.40;99.90;;;;;;5041922;28;20022;-73
2023/02/21 10:00:22;;;;;;;49.00;17.95;;;9.40;99.90;;;;;;5040639;28;20034;-75
2023/02/21 10:03:00;;;;;;;52.78;17.30;;;9.50;99.90;;;;;;5041670;28;20064;-73
2023/02/21 10:05:45;;;;;;;43.50;16.38;;;9.60;99.90;;;;;;5049063;28;20037;-75
2023/02/21 10:08:35;;;;;;;53.97;16.92;;;9.60;99.90;;;;;;5038713;28;20041;-77
2023/02/21 10:11:27;;;;;;;45.33;16.95;;;9.60;99.90;;;;;;5041185;28;20041;-75
2023/02/21 10:14:01;;;;;;;45.40;18.08;;;9.70;99.90;;;;;;5045188;28;20045;-76
2023/02/21 10:16:43;;;;;;;56.35;18.60;;;9.70;99.90;;;;;;5040633;28;20056;-77
2023/02/21 10:19:20;;;;;;;43.38;18.25;;;9.80;99.90;;;;;;5042028;28;20116;-77
2023/02/21 10:21:47;;;;;;;55.90;19.70;;;9.90;99.90;;;;;;5040461;28;20025;-77
2023/02/21 10:24:22;;;;;;;41.85;17.00;;;9.90;99.90;;;;;;5039585;28;20028;-75
2023/02/21 10:27:05;;;;;;;37.95;16.48;;;10.00;99.90;;;;;;5041196;28;20033;-77
2023/02/21 10:30:09;;;;;;;38.72;16.13;;;10.00;99.90;;;;;;5041914;28;20037;-71
2023/02/21 10:32:36;;;;;;;43.53;14.88;;;10.00;99.90;;;;;;5041981;28;20025;-76
2023/02/21 10:35:02;;;;;;;40.78;15.32;;;10.10;99.90;;;;;;5041459;28;20028;-74
2023/02/21 10:37:45;;;;;;;43.95;15.77;;;10.20;99.90;;;;;;5042691;28;20029;-78
2023/02/21 10:40:28;;;;;;;42.67;16.35;;;10.20;99.90;;;;;;5041255;28;20104;-77
2023/02/21 10:43:05;;;;;;;29.52;14.45;;;10.20;99.90;;;;;;5040505;28;20109;-74
2023/02/21 10:45:41;;;;;;;39.63;14.68;;;10.30;99.90;;;;;;5041009;28;20025;-76
2023/02/21 10:48:10;;;;;;;31.77;13.80;;;10.30;99.90;;;;;;5041668;28;20033;-76
2023/02/21 10:51:02;;;;;;;39.20;14.85;;;10.30;99.90;;;;;;5041732;28;20053;-75
2023/02/21 10:53:27;;;;;;;35.97;13.65;;;10.30;99.90;;;;;;5041196;28;20060;-72
2023/02/21 10:56:17;;;;;;;34.25;14.27;;;10.20;99.90;;;;;;5042272;28;20041;-74
2023/02/21 10:59:04;;;;;;;35.65;14.85;;;10.20;99.90;;;;;;5042596;28;20071;-77
2023/02/21 11:01:40;;;;;;;33.95;15.15;;;10.20;99.90;;;;;;5041449;28;20052;-74
2023/02/21 11:04:26;;;;;;;39.17;15.23;;;10.10;99.90;;;;;;5041707;28;20072;-75
2023/02/21 11:07:07;;;;;;;40.53;15.57;;;10.10;99.90;;;;;;5040571;28;20037;-78
2023/02/21 11:09:42;;;;;;;38.30;16.15;;;10.10;99.90;;;;;;5042364;28;20121;-76
2023/02/21 11:12:30;;;;;;;34.90;14.90;;;10.20;99.90;;;;;;5042520;28;20025;-76
2023/02/21 11:14:56;;;;;;;36.58;15.70;;;10.30;99.90;;;;;;5040351;28;21474;-73
2023/02/21 11:17:32;;;;;;;39.05;14.80;;;10.30;99.90;;;;;;5040700;28;20029;-72
2023/02/21 11:20:16;;;;;;;34.47;14.25;;;10.30;99.90;;;;;;5036573;28;20037;-74
2023/02/21 11:22:48;;;;;;;38.67;14.73;;;10.30;99.90;;;;;;5038305;28;20038;-76
2023/02/21 11:25:17;;;;;;;38.90;14.80;;;10.30;99.90;;;;;;5056689;28;20379;-76
2023/02/21 11:27:44;;;;;;;38.17;14.20;;;10.20;99.90;;;;;;5042408;28;20029;-75
2023/02/21 11:30:18;;;;;;;40.90;14.85;;;10.20;99.90;;;;;;5041429;28;20140;-76
2023/02/21 11:32:50;;;;;;;36.72;14.80;;;10.20;99.90;;;;;;5040331;28;20029;-76
2023/02/21 11:35:18;;;;;;;41.35;15.30;;;10.20;99.90;;;;;;5041213;28;20025;-75
2023/02/21 11:38:05;;;;;;;35.30;14.60;;;10.20;99.90;;;;;;5039966;28;20018;-74
2023/02/21 11:40:43;;;;;;;36.90;15.77;;;10.20;99.90;;;;;;5041688;28;20022;-73
2023/02/21 11:43:19;;;;;;;35.00;15.40;;;10.30;99.90;;;;;;5040537;28;20035;-75
2023/02/21 11:46:12;;;;;;;40.95;15.25;;;10.30;99.90;;;;;;5041520;28;20033;-73
2023/02/21 11:49:10;;;;;;;41.75;15.90;;;10.30;99.90;;;;;;5040905;28;20168;-77
2023/02/21 11:52:15;;;;;;;35.45;15.57;;;10.40;99.90;;;;;;5057046;28;20060;-73
2023/02/21 11:54:43;;;;;;;33.85;15.45;;;10.40;99.90;;;;;;5035358;28;20041;-74
2023/02/21 11:57:23;;;;;;;36.70;15.05;;;10.40;99.90;;;;;;5041343;28;20028;-77
2023/02/21 12:00:18;;;;;;;32.08;16.05;;;10.50;99.90;;;;;;5042046;28;20025;-73
2023/02/21 12:02:58;;;;;;;41.10;15.52;;;10.50;99.90;;;;;;5041501;28;20060;-76
2023/02/21 12:05:30;;;;;;;31.90;14.48;;;10.50;99.90;;;;;;5040469;28;20105;-72
2023/02/21 12:08:34;;;;;;;37.15;15.02;;;10.50;99.90;;;;;;5040960;28;20061;-76
2023/02/21 12:11:30;;;;;;;38.03;14.63;;;10.60;99.90;;;;;;5040984;28;20033;-75
2023/02/21 12:14:23;;;;;;;41.47;16.33;;;10.50;99.90;;;;;;5041690;28;20038;-74
2023/02/21 12:17:17;;;;;;;40.88;16.70;;;10.50;99.90;;;;;;5041159;28;20056;-75
2023/02/21 12:19:42;;;;;;;42.40;16.95;;;10.40;99.90;;;;;;5041846;28;20025;-72
2023/02/21 12:22:53;;;;;;;40.10;17.17;;;10.50;99.90;;;;;;5040785;28;20021;-75
2023/02/21 12:25:24;;;;;;;43.95;18.83;;;10.50;99.90;;;;;;5041292;28;20096;-72
2023/02/21 12:28:16;;;;;;;43.95;17.83;;;10.50;99.90;;;;;;5040380;28;20026;-73
2023/02/21 12:31:00;;;;;;;46.65;18.13;;;10.40;99.90;;;;;;5041522;28;20049;-71
2023/02/21 12:33:43;;;;;;;50.60;17.98;;;10.50;99.90;;;;;;5043311;28;20076;-70
2023/02/21 12:36:30;;;;;;;45.75;17.50;;;10.40;99.90;;;;;;5043684;28;20044;-71
2023/02/21 12:39:31;;;;;;;41.72;18.20;;;10.40;99.90;;;;;;5040149;28;20109;-74
2023/02/21 12:42:09;;;;;;;44.67;17.73;;;10.40;99.90;;;;;;5002189;28;20049;-71
2023/02/21 12:44:52;;;;;;;50.63;19.65;;;10.40;99.90;;;;;;5049362;28;20064;-72
2023/02/21 12:47:25;;;;;;;37.85;16.98;;;10.50;99.90;;;;;;5044651;28;20116;-76
2023/02/21 12:50:00;;;;;;;47.55;18.50;;;10.50;99.90;;;;;;5044324;28;20038;-74
2023/02/21 12:52:50;;;;;;;49.63;18.80;;;10.40;99.90;;;;;;5043731;28;20022;-72
2023/02/21 12:55:25;;;;;;;39.30;17.98;;;10.40;99.90;;;;;;5043695;28;20025;-74
2023/02/21 12:58:08;;;;;;;47.65;18.67;;;10.40;99.90;;;;;;5043521;28;20043;-73
2023/02/21 13:00:42;;;;;;;39.78;17.80;;;10.40;99.90;;;;;;5040806;28;20041;-75
2023/02/21 13:03:17;;;;;;;41.33;17.30;;;10.40;99.90;;;;;;5042443;28;20025;-73
2023/02/21 13:06:02;;;;;;;44.63;17.58;;;10.40;99.90;;;;;;5043327;28;20116;-71
2023/02/21 13:09:03;;;;;;;43.85;17.50;;;10.40;99.90;;;;;;5043211;28;20064;-72
2023/02/21 13:11:34;;;;;;;40.78;16.90;;;10.40;99.90;;;;;;5042918;28;20067;-70
2023/02/21 13:14:01;;;;;;;43.95;18.25;;;10.30;99.90;;;;;;5042591;28;20033;-71
2023/02/21 13:16:27;;;;;;;42.15;18.02;;;10.40;99.90;;;;;;5042824;28;20021;-75
2023/02/21 13:19:04;;;;;;;43.38;18.40;;;10.40;99.90;;;;;;5042926;28;20037;-73
2023/02/21 13:21:58;;;;;;;48.00;18.30;;;10.50;99.90;;;;;;5043203;28;21201;-70
2023/02/21 13:24:47;;;;;;;42.63;19.02;;;10.50;99.90;;;;;;5041386;28;20033;-72
2023/02/21 13:27:30;;;;;;;49.05;18.48;;;10.50;99.90;;;;;;5043293;28;20097;-75
2023/02/21 13:30:09;;;;;;;43.75;18.35;;;10.50;99.90;;;;;;5043584;28;20038;-72
2023/02/21 13:32:38;;;;;;;46.40;19.05;;;10.60;99.90;;;;;;5040750;28;20119;-72
2023/02/21 13:35:08;;;;;;;35.38;15.93;;;10.60;99.90;;;;;;5041747;28;20035;-73
2023/02/21 13:37:42;;;;;;;44.72;17.70;;;10.70;99.90;;;;;;5041061;28;20505;-74
2023/02/21 13:40:23;;;;;;;40.95;18.77;;;10.70;99.90;;;;;;5042961;28;20049;-72
2023/02/21 13:42:59;;;;;;;47.40;19.60;;;10.70;99.90;;;;;;5043300;28;20026;-74
2023/02/21 13:45:26;;;;;;;40.95;19.67;;;10.70;99.90;;;;;;5044115;28;20537;-71
2023/02/21 13:47:51;;;;;;;45.33;20.15;;;10.70;99.90;;;;;;5042768;28;20033;-71
2023/02/21 13:50:43;;;;;;;43.53;17.98;;;10.80;99.90;;;;;;5042619;28;20045;-70
2023/02/21 13:53:31;;;;;;;35.88;17.05;;;10.80;99.90;;;;;;5041295;28;20026;-71
2023/02/21 13:56:06;;;;;;;41.17;17.15;;;10.80;99.90;;;;;;5043009;28;20383;-70
2023/02/21 13:58:34;;;;;;;39.22;16.27;;;10.90;99.90;;;;;;5042467;28;20025;-71
2023/02/21 14:01:13;;;;;;;38.15;16.27;;;10.90;99.90;;;;;;5043335;28;20026;-70
2023/02/21 14:03:39;;;;;;;32.80;15.20;;;10.90;99.90;;;;;;5042165;28;20025;-70
2023/02/21 14:06:07;;;;;;;33.33;15.02;;;10.80;99.90;;;;;;5043012;28;20091;-73
2023/02/21 14:08:44;;;;;;;34.83;14.55;;;10.80;99.90;;;;;;5033836;28;20087;-72
2023/02/21 14:11:18;;;;;;;32.22;13.70;;;10.80;99.90;;;;;;5041676;28;20026;-71
2023/02/21 14:13:49;;;;;;;36.42;15.13;;;10.80;99.90;;;;;;5039845;28;20091;-73
2023/02/21 14:16:26;;;;;;;36.40;15.68;;;10.80;99.90;;;;;;5040215;28;20030;-70
2023/02/21 14:19:05;;;;;;;36.28;16.15;;;10.80;99.90;;;;;;5041859;28;20067;-72
2023/02/21 14:21:42;;;;;;;36.50;16.27;;;10.80;99.90;;;;;;5042552;28;20029;-71
2023/02/21 14:24:27;;;;;;;35.75;15.90;;;10.80;99.90;;;;;;5042234;28;20068;-70
2023/02/21 14:27:00;;;;;;;;;;;10.90;99.90;;;;;;5042821;28;20032;-72
2023/02/21 14:30:10;;;;;;;42.75;17.52;;;10.80;99.90;;;;;;5041227;28;19970;-70
2023/02/21 14:32:48;;;;;;;37.40;16.15;;;10.80;99.90;;;;;;5017940;28;20116;-71
2023/02/21 14:35:23;;;;;;;40.30;17.35;;;10.90;99.90;;;;;;5016137;28;20125;-69
2023/02/21 14:38:13;;;;;;;34.88;16.38;;;10.80;99.90;;;;;;5031674;28;20467;-72
2023/02/21 14:40:57;;;;;;;44.03;20.17;;;10.80;99.90;;;;;;5038784;28;20041;-71
2023/02/21 14:43:36;;;;;;;41.17;16.75;;;10.90;99.90;;;;;;5034252;28;20072;-71
2023/02/21 14:46:40;;;;;;;37.70;18.58;;;10.90;99.90;;;;;;5042529;28;20072;-72
2023/02/21 14:49:21;;;;;;;36.03;15.95;;;10.90;99.90;;;;;;5040327;28;20029;-72
2023/02/21 14:52:22;;;;;;;41.25;17.25;;;10.90;99.90;;;;;;5040484;28;20029;-68
2023/02/21 14:55:25;;;;;;;28.80;14.82;;;10.90;99.90;;;;;;5040519;28;20041;-70
2023/02/21 14:58:36;;;;;;;33.42;15.23;;;10.90;99.90;;;;;;5042763;28;20020;-69
2023/02/21 15:01:06;;;;;;;36.45;15.25;;;10.90;99.90;;;;;;5042178;28;20037;-72
2023/02/21 15:03:44;;;;;;;32.78;14.50;;;10.90;99.90;;;;;;5041286;28;20133;-71
2023/02/21 15:06:19;;;;;;;31.42;14.55;;;10.90;99.90;;;;;;5040375;28;20025;-72
2023/02/21 15:08:47;;;;;;;34.17;14.48;;;10.90;99.90;;;;;;5042056;28;20029;-70
2023/02/21 15:11:20;;;;;;;35.55;15.20;;;10.90;99.90;;;;;;5043881;28;20048;-72
2023/02/21 15:13:46;;;;;;;30.58;14.73;;;10.90;99.90;;;;;;5043148;28;20017;-70
2023/02/21 15:16:14;;;;;;;38.15;16.50;;;10.90;99.90;;;;;;5041527;28;20087;-70